FTTD

Moundou Airport

Chad
METAR FTTD 211500Z 04010KT 9999 BKN040TCU 38/20 Q1007
Observed Flight Rules
Apr-21 @ 15:00 UTC (36 minutes ago) Visual Flight Rules
Wind Visibility Clouds
40° at 10 knots 10,000+ meters
  • Broken at 4,000' AGL
Temperatures Readings
Current 38°C / 100°F
Dewpoint 20°C / 68°F
Humidity 35%
Altimeter 29.73" Hg
Pressure 1007 hPa
Elevation 422
METAR FTTD 211500Z 04010KT 9999 BKN040TCU 38/20 Q1007
Observed Flight Rules
Apr-21 @ 15:00 UTC
(36 minutes ago)
VFR
Wind Visibility
40° at 10 knots 10,000+ meters
Clouds
  • Broken at 4,000' AGL
Temperature Dewpoint
38°C / 100°F 20°C / 68°F
Humidity Altimeter Pressure
35% 29.73" Hg 1007 hPa